Strona główna
METAR-TAF:

METAR-TAF

Lotnisko :

Hartford, Connecticut, Stany Zjednoczone

Szerokość geograficzna: 41-44-06N, Długość geograficzna: 072-39-06W, wysokość: 5 m

Aktualna obserwacja pogody

Raport powstał 1 godzina i 4 minut temu, godzina 08:53 UTC
Wiatr 4 kt od południe
Temperatura -1°C
Wilgotność 86%
Ciśnienie 1022 hPa
Widzialność: 16.1 km
bezchmurnie

METAR: KHFD 220853Z AUTO 17004KT 10SM CLR M01/M03 A3017 RMK AO2 SLP215 T10111028 52005

czas: 05:57 (09:57 UTC)


TAF: brakujący

Obserwacja i prognoza pogody dla ponad 4000 lotnisk (raport METAR i TAF).

Dostępne stacje oznaczono żółtymi i czerwonymi punktami na mapie.

Najedź kursorem aby zobaczyć nazwę stacji.

Kliknij aby zobaczyć obserwacje i prognozy pogody.

Aby zmienić mapę: kliknij na zielony przycisk z czarnym krzyżykiem, aby powiększyć; na zielony przycisk z myślnikiem, aby pomniejszyć; na zielone strzałki, aby przejść do map sąsiednich.


METAR-TAF: